createdAt,value
2022-12-23T00:00:14.737Z,999.47
2022-12-23T00:01:14.714Z,999.46
2022-12-23T00:02:14.798Z,999.41
2022-12-23T00:03:14.826Z,999.43
2022-12-23T00:04:14.713Z,999.45
2022-12-23T00:05:14.769Z,999.40
2022-12-23T00:06:14.651Z,999.37
2022-12-23T00:07:14.651Z,999.36
2022-12-23T00:08:14.652Z,999.34
2022-12-23T00:09:14.649Z,999.31
2022-12-23T00:10:14.622Z,999.32
2022-12-23T00:11:14.601Z,999.34
2022-12-23T00:12:14.594Z,999.27
2022-12-23T00:13:14.587Z,999.29
2022-12-23T00:14:20.533Z,999.28
2022-12-23T00:15:15.577Z,999.30
2022-12-23T00:16:14.607Z,999.26
2022-12-23T00:17:22.998Z,999.25
2022-12-23T00:18:15.535Z,999.23
2022-12-23T00:19:14.514Z,999.24
2022-12-23T00:20:14.516Z,999.20
2022-12-23T00:21:14.517Z,999.21
2022-12-23T00:22:14.503Z,999.21
2022-12-23T00:23:14.480Z,999.22
2022-12-23T00:24:14.659Z,999.22
2022-12-23T00:25:14.470Z,999.22
2022-12-23T00:26:14.443Z,999.20
2022-12-23T00:27:14.468Z,999.18
2022-12-23T00:28:14.418Z,999.15
2022-12-23T00:29:14.419Z,999.12
2022-12-23T00:30:14.536Z,999.07
2022-12-23T00:31:14.443Z,999.05
2022-12-23T00:32:14.486Z,999.03
2022-12-23T00:33:14.357Z,999.00
2022-12-23T00:34:14.408Z,998.99
2022-12-23T00:35:14.344Z,998.97
2022-12-23T00:36:14.389Z,998.98
2022-12-23T00:37:14.327Z,998.99
2022-12-23T00:38:14.366Z,998.98
2022-12-23T00:39:14.304Z,998.98
2022-12-23T00:40:14.280Z,998.92
2022-12-23T00:41:14.280Z,998.95
2022-12-23T00:42:14.271Z,998.93
2022-12-23T00:43:14.258Z,998.91
2022-12-23T00:44:14.300Z,998.92
2022-12-23T00:45:14.264Z,998.89
2022-12-23T00:46:14.295Z,998.87
2022-12-23T00:47:14.197Z,998.87
2022-12-23T00:48:14.265Z,998.88
2022-12-23T00:49:14.205Z,998.90
2022-12-23T00:50:14.234Z,998.89
2022-12-23T00:51:14.180Z,998.91
2022-12-23T00:52:14.185Z,998.89
2022-12-23T00:53:14.147Z,998.90
2022-12-23T00:54:14.229Z,998.92
2022-12-23T00:55:14.131Z,998.87
2022-12-23T00:56:14.106Z,998.87
2022-12-23T00:57:14.099Z,998.89
2022-12-23T00:58:14.111Z,998.92
2022-12-23T00:59:14.096Z,998.88
2022-12-23T01:00:14.070Z,998.89
2022-12-23T01:01:14.096Z,998.89
2022-12-23T01:02:14.136Z,998.90
2022-12-23T01:03:14.190Z,998.92
2022-12-23T01:04:14.047Z,998.93
2022-12-23T01:05:14.017Z,998.91
2022-12-23T01:06:14.019Z,998.93
2022-12-23T01:07:14.004Z,998.87
2022-12-23T01:08:14.018Z,998.86
2022-12-23T01:09:13.960Z,998.86
2022-12-23T01:10:13.954Z,998.90
2022-12-23T01:11:13.948Z,998.88
2022-12-23T01:12:13.924Z,998.86
2022-12-23T01:13:13.917Z,998.88
2022-12-23T01:14:13.965Z,998.88
2022-12-23T01:15:13.965Z,998.87
2022-12-23T01:16:17.614Z,998.85
2022-12-23T01:17:13.977Z,998.86
2022-12-23T01:18:20.877Z,998.85
2022-12-23T01:19:13.846Z,998.85
2022-12-23T01:20:13.850Z,998.87
2022-12-23T01:21:13.849Z,998.85
2022-12-23T01:22:13.828Z,998.84
2022-12-23T01:23:13.806Z,998.78
2022-12-23T01:24:13.822Z,998.80
2022-12-23T01:25:13.805Z,998.73
2022-12-23T01:26:13.785Z,998.79
2022-12-23T01:27:13.794Z,998.77
2022-12-23T01:28:13.765Z,998.79
2022-12-23T01:29:13.760Z,998.80
2022-12-23T01:30:13.737Z,998.79
2022-12-23T01:31:13.789Z,998.81
2022-12-23T01:32:13.855Z,998.74
2022-12-23T01:33:13.710Z,998.74
2022-12-23T01:34:13.710Z,998.74
2022-12-23T01:35:13.695Z,998.76
2022-12-23T01:36:13.681Z,998.71
2022-12-23T01:37:13.662Z,998.67
2022-12-23T01:38:13.647Z,998.72
2022-12-23T01:39:13.658Z,998.67
2022-12-23T01:40:13.642Z,998.67
2022-12-23T01:41:13.605Z,998.68
2022-12-23T01:42:13.614Z,998.65
2022-12-23T01:43:13.597Z,998.62
2022-12-23T01:44:13.597Z,998.59
2022-12-23T01:45:13.564Z,998.57
2022-12-23T01:46:13.584Z,998.63
2022-12-23T01:47:13.561Z,998.56
2022-12-23T01:48:13.532Z,998.63
2022-12-23T01:49:13.513Z,998.61
2022-12-23T01:50:13.513Z,998.59
2022-12-23T01:51:13.521Z,998.61
2022-12-23T01:52:13.504Z,998.60
2022-12-23T01:53:13.497Z,998.59
2022-12-23T01:54:13.487Z,998.58
2022-12-23T01:55:13.476Z,998.58
2022-12-23T01:56:13.447Z,998.54
2022-12-23T01:57:13.432Z,998.59
2022-12-23T01:58:13.417Z,998.55
2022-12-23T01:59:13.408Z,998.54
2022-12-23T02:00:13.419Z,998.55
2022-12-23T02:01:13.453Z,998.53
2022-12-23T02:02:13.525Z,998.51
2022-12-23T02:03:13.389Z,998.55
2022-12-23T02:04:13.391Z,998.54
2022-12-23T02:05:13.359Z,998.53
2022-12-23T02:06:13.323Z,998.52
2022-12-23T02:07:13.331Z,998.53
2022-12-23T02:08:13.315Z,998.50
2022-12-23T02:09:13.315Z,998.46
2022-12-23T02:10:13.285Z,998.48
2022-12-23T02:11:13.277Z,998.46
2022-12-23T02:12:13.281Z,998.45
2022-12-23T02:13:13.249Z,998.44
2022-12-23T02:14:13.265Z,998.48
2022-12-23T02:15:13.245Z,998.47
2022-12-23T02:16:13.224Z,998.46
2022-12-23T02:17:13.276Z,998.44
2022-12-23T02:18:13.191Z,998.43
2022-12-23T02:19:13.183Z,998.43
2022-12-23T02:20:13.172Z,998.38
2022-12-23T02:21:13.195Z,998.38
2022-12-23T02:22:13.162Z,998.36
2022-12-23T02:23:13.141Z,998.36
2022-12-23T02:24:13.132Z,998.34
2022-12-23T02:25:13.123Z,998.36
2022-12-23T02:26:13.131Z,998.34
2022-12-23T02:27:13.102Z,998.31
2022-12-23T02:28:13.084Z,998.28
2022-12-23T02:29:13.082Z,998.31
2022-12-23T02:30:13.060Z,998.31
2022-12-23T02:31:13.111Z,998.27
2022-12-23T02:32:13.096Z,998.26
2022-12-23T02:33:13.069Z,998.28
2022-12-23T02:34:13.066Z,998.28
2022-12-23T02:35:12.998Z,998.29
2022-12-23T02:36:12.988Z,998.31
2022-12-23T02:37:13.081Z,998.25
2022-12-23T02:38:13.031Z,998.25
2022-12-23T02:39:12.972Z,998.21
2022-12-23T02:40:12.971Z,998.18
2022-12-23T02:41:12.940Z,998.14
2022-12-23T02:42:12.919Z,998.13
2022-12-23T02:43:12.971Z,998.13
2022-12-23T02:44:12.920Z,998.11
2022-12-23T02:45:12.909Z,998.09
2022-12-23T02:46:12.958Z,998.08
2022-12-23T02:47:12.897Z,998.07
2022-12-23T02:48:12.865Z,998.03
2022-12-23T02:49:12.863Z,998.04
2022-12-23T02:50:12.840Z,998.01
2022-12-23T02:51:12.818Z,998.03
2022-12-23T02:52:12.838Z,998.02
2022-12-23T02:53:12.819Z,998.01
2022-12-23T02:54:12.831Z,998.04
2022-12-23T02:55:12.795Z,998.03
2022-12-23T02:56:12.764Z,998.02
2022-12-23T02:57:12.852Z,998.01
2022-12-23T02:58:12.754Z,997.99
2022-12-23T02:59:12.733Z,998.00
2022-12-23T03:00:12.732Z,997.98
2022-12-23T03:01:12.752Z,997.96
2022-12-23T03:02:12.864Z,997.94
2022-12-23T03:03:12.818Z,997.91
2022-12-23T03:04:12.719Z,997.89
2022-12-23T03:05:12.675Z,997.88
2022-12-23T03:06:12.659Z,997.87
2022-12-23T03:07:18.341Z,997.86
2022-12-23T03:08:13.658Z,997.84
2022-12-23T03:09:12.626Z,997.81
2022-12-23T03:10:12.609Z,997.82
2022-12-23T03:11:12.611Z,997.79
2022-12-23T03:12:12.607Z,997.80
2022-12-23T03:13:12.607Z,997.80
2022-12-23T03:14:12.621Z,997.84
2022-12-23T03:15:12.566Z,997.78
2022-12-23T03:16:12.640Z,997.76
2022-12-23T03:17:12.534Z,997.77
2022-12-23T03:18:12.515Z,997.77
2022-12-23T03:19:12.551Z,997.78
2022-12-23T03:20:12.520Z,997.80
2022-12-23T03:21:12.502Z,997.80
2022-12-23T03:22:12.500Z,997.79
2022-12-23T03:23:12.473Z,997.77
2022-12-23T03:24:12.505Z,997.76
2022-12-23T03:25:12.471Z,997.76
2022-12-23T03:26:12.425Z,997.75
2022-12-23T03:27:12.423Z,997.79
2022-12-23T03:28:12.416Z,997.75
2022-12-23T03:29:12.428Z,997.73
2022-12-23T03:30:12.383Z,997.71
2022-12-23T03:31:12.427Z,997.65
2022-12-23T03:32:12.402Z,997.64
2022-12-23T03:33:12.375Z,997.66
2022-12-23T03:34:12.370Z,997.65
2022-12-23T03:35:12.346Z,997.63
2022-12-23T03:36:12.344Z,997.64
2022-12-23T03:37:12.331Z,997.62
2022-12-23T03:38:12.309Z,997.65
2022-12-23T03:39:12.326Z,997.67
2022-12-23T03:40:12.297Z,997.67
2022-12-23T03:41:12.288Z,997.70
2022-12-23T03:42:12.262Z,997.69
2022-12-23T03:43:12.268Z,997.74
2022-12-23T03:44:12.269Z,997.70
2022-12-23T03:45:37.533Z,997.74
2022-12-23T03:46:13.286Z,997.71
2022-12-23T03:47:12.204Z,997.68
2022-12-23T03:48:12.191Z,997.65
2022-12-23T03:49:12.194Z,997.63
2022-12-23T03:50:12.183Z,997.58
2022-12-23T03:51:12.164Z,997.56
2022-12-23T03:52:18.919Z,997.51
2022-12-23T03:53:13.133Z,997.47
2022-12-23T03:54:12.172Z,997.40
2022-12-23T03:55:12.117Z,997.38
2022-12-23T03:56:12.115Z,997.39
2022-12-23T03:57:12.105Z,997.39
2022-12-23T03:58:12.099Z,997.41
2022-12-23T03:59:12.092Z,997.46
2022-12-23T04:00:12.069Z,997.41
2022-12-23T04:01:12.104Z,997.49
2022-12-23T04:02:12.159Z,997.40
2022-12-23T04:03:12.041Z,997.48
2022-12-23T04:04:12.186Z,997.44
2022-12-23T04:05:12.011Z,997.38
2022-12-23T04:06:12.012Z,997.39
2022-12-23T04:07:11.980Z,997.39
2022-12-23T04:08:12.020Z,997.38
2022-12-23T04:09:14.405Z,997.35
2022-12-23T04:10:12.962Z,997.38
2022-12-23T04:11:11.927Z,997.37
2022-12-23T04:12:11.933Z,997.36
2022-12-23T04:13:11.942Z,997.37
2022-12-23T04:14:11.928Z,997.34
2022-12-23T04:15:13.398Z,997.32
2022-12-23T04:16:11.940Z,997.30
2022-12-23T04:17:11.871Z,997.30
2022-12-23T04:18:11.889Z,997.31
2022-12-23T04:19:11.852Z,997.31
2022-12-23T04:20:11.830Z,997.30
2022-12-23T04:21:11.845Z,997.29
2022-12-23T04:22:11.866Z,997.25
2022-12-23T04:23:11.818Z,997.25
2022-12-23T04:24:11.857Z,997.26
2022-12-23T04:25:11.800Z,997.24
2022-12-23T04:26:11.787Z,997.24
2022-12-23T04:27:11.770Z,997.26
2022-12-23T04:28:11.755Z,997.22
2022-12-23T04:29:11.746Z,997.22
2022-12-23T04:30:11.746Z,997.21
2022-12-23T04:31:11.779Z,997.16
2022-12-23T04:32:11.697Z,997.18
2022-12-23T04:33:11.674Z,997.14
2022-12-23T04:34:11.736Z,997.16
2022-12-23T04:35:11.674Z,997.18
2022-12-23T04:36:11.671Z,997.17
2022-12-23T04:37:11.650Z,997.17
2022-12-23T04:38:11.632Z,997.15
2022-12-23T04:39:11.640Z,997.13
2022-12-23T04:40:11.628Z,997.14
2022-12-23T04:41:11.612Z,997.16
2022-12-23T04:42:11.594Z,997.15
2022-12-23T04:43:11.594Z,997.17
2022-12-23T04:44:11.622Z,997.15
2022-12-23T04:45:11.549Z,997.17
2022-12-23T04:46:11.587Z,997.12
2022-12-23T04:47:11.552Z,997.12
2022-12-23T04:48:11.551Z,997.09
2022-12-23T04:49:11.508Z,997.13
2022-12-23T04:50:11.541Z,997.12
2022-12-23T04:51:11.500Z,997.06
2022-12-23T04:52:11.499Z,997.08
2022-12-23T04:53:11.461Z,997.03
2022-12-23T04:54:11.493Z,997.07
2022-12-23T04:55:11.440Z,997.07
2022-12-23T04:56:11.462Z,997.07
2022-12-23T04:57:11.432Z,997.09
2022-12-23T04:58:11.416Z,997.08
2022-12-23T04:59:11.432Z,997.08
2022-12-23T05:00:11.402Z,997.09
2022-12-23T05:01:11.423Z,997.10
2022-12-23T05:02:11.545Z,997.12
2022-12-23T05:03:11.565Z,997.10
2022-12-23T05:04:11.368Z,997.09
2022-12-23T05:05:11.349Z,997.11
2022-12-23T05:06:11.352Z,997.11
2022-12-23T05:07:11.330Z,997.16
2022-12-23T05:08:11.306Z,997.16
2022-12-23T05:09:11.318Z,997.17
2022-12-23T05:10:11.274Z,997.17
2022-12-23T05:11:11.286Z,997.15
2022-12-23T05:12:11.283Z,997.15
2022-12-23T05:13:11.248Z,997.17
2022-12-23T05:14:11.338Z,997.17
2022-12-23T05:15:11.266Z,997.15
2022-12-23T05:16:11.262Z,997.14
2022-12-23T05:17:11.209Z,997.11
2022-12-23T05:18:11.205Z,997.12
2022-12-23T05:19:11.194Z,997.08
2022-12-23T05:20:11.208Z,997.15
2022-12-23T05:21:11.171Z,997.13
2022-12-23T05:22:11.159Z,997.14
2022-12-23T05:23:11.147Z,997.15
2022-12-23T05:24:11.206Z,997.14
2022-12-23T05:25:11.135Z,997.12
2022-12-23T05:26:11.126Z,997.12
2022-12-23T05:27:11.126Z,997.10
2022-12-23T05:28:11.088Z,997.16
2022-12-23T05:29:11.063Z,997.14
2022-12-23T05:30:11.065Z,997.14
2022-12-23T05:31:11.086Z,997.14
2022-12-23T05:32:11.143Z,997.15
2022-12-23T05:33:11.133Z,997.18
2022-12-23T05:34:11.201Z,997.15
2022-12-23T05:35:10.991Z,997.14
2022-12-23T05:36:10.998Z,997.13
2022-12-23T05:37:10.998Z,997.14
2022-12-23T05:38:10.973Z,997.15
2022-12-23T05:39:10.960Z,997.12
2022-12-23T05:40:10.973Z,997.12
2022-12-23T05:41:10.923Z,997.08
2022-12-23T05:42:10.927Z,997.07
2022-12-23T05:43:10.915Z,997.09
2022-12-23T05:44:10.920Z,997.08
2022-12-23T05:45:10.902Z,997.08
2022-12-23T05:46:11.038Z,997.07
2022-12-23T05:47:10.875Z,997.11
2022-12-23T05:48:10.875Z,997.13
2022-12-23T05:49:10.855Z,997.13
2022-12-23T05:50:10.831Z,997.13
2022-12-23T05:51:10.825Z,997.15
2022-12-23T05:52:10.838Z,997.16
2022-12-23T05:53:10.815Z,997.13
2022-12-23T05:54:10.822Z,997.17
2022-12-23T05:55:10.809Z,997.15
2022-12-23T05:56:10.785Z,997.17
2022-12-23T05:57:10.762Z,997.13
2022-12-23T05:58:10.765Z,997.16
2022-12-23T05:59:10.731Z,997.12
2022-12-23T06:00:10.747Z,997.20
2022-12-23T06:01:10.797Z,997.19
2022-12-23T06:02:10.879Z,997.16
2022-12-23T06:03:10.818Z,997.16
2022-12-23T06:04:10.817Z,997.14
2022-12-23T06:05:10.675Z,997.12
2022-12-23T06:06:10.682Z,997.17
2022-12-23T06:07:10.649Z,997.13
2022-12-23T06:08:10.652Z,997.13
2022-12-23T06:09:10.627Z,997.12
2022-12-23T06:10:10.625Z,997.17
2022-12-23T06:11:10.629Z,997.16
2022-12-23T06:12:10.612Z,997.18
2022-12-23T06:13:10.599Z,997.20
2022-12-23T06:14:10.586Z,997.21
2022-12-23T06:15:10.564Z,997.23
2022-12-23T06:16:10.634Z,997.27
2022-12-23T06:17:10.539Z,997.22
2022-12-23T06:18:10.543Z,997.25
2022-12-23T06:19:10.525Z,997.29
2022-12-23T06:20:17.850Z,997.28
2022-12-23T06:21:11.520Z,997.26
2022-12-23T06:22:10.496Z,997.24
2022-12-23T06:23:10.504Z,997.29
2022-12-23T06:24:10.471Z,997.25
2022-12-23T06:25:10.455Z,997.28
2022-12-23T06:26:10.457Z,997.25
2022-12-23T06:27:10.437Z,997.21
2022-12-23T06:28:10.476Z,997.28
2022-12-23T06:29:10.415Z,997.30
2022-12-23T06:30:10.416Z,997.29
2022-12-23T06:31:10.379Z,997.32
2022-12-23T06:32:10.424Z,997.32
2022-12-23T06:33:10.374Z,997.34
2022-12-23T06:34:10.388Z,997.39
2022-12-23T06:35:10.379Z,997.39
2022-12-23T06:36:10.336Z,997.37
2022-12-23T06:37:10.347Z,997.41
2022-12-23T06:38:12.174Z,997.43
2022-12-23T06:39:10.298Z,997.53
2022-12-23T06:40:10.294Z,997.47
2022-12-23T06:41:10.292Z,997.57
2022-12-23T06:42:10.269Z,997.61
2022-12-23T06:43:10.283Z,997.61
2022-12-23T06:44:10.258Z,997.67
2022-12-23T06:45:10.217Z,997.64
2022-12-23T06:46:10.303Z,997.65
2022-12-23T06:47:10.223Z,997.64
2022-12-23T06:48:10.226Z,997.67
2022-12-23T06:49:13.513Z,997.61
2022-12-23T06:50:10.261Z,997.66
2022-12-23T06:51:10.206Z,997.65
2022-12-23T06:52:10.161Z,997.70
2022-12-23T06:53:10.171Z,997.71
2022-12-23T06:54:10.129Z,997.72
2022-12-23T06:55:10.147Z,997.74
2022-12-23T06:56:10.141Z,997.80
2022-12-23T06:57:10.084Z,997.77
2022-12-23T06:58:10.095Z,997.78
2022-12-23T06:59:10.076Z,997.82
2022-12-23T07:00:10.076Z,997.78
2022-12-23T07:01:10.311Z,997.80
2022-12-23T07:02:10.145Z,997.84
2022-12-23T07:03:10.188Z,997.84
2022-12-23T07:04:10.032Z,997.85
2022-12-23T07:05:10.018Z,997.88
2022-12-23T07:06:10.008Z,997.87
2022-12-23T07:07:10.011Z,997.90
2022-12-23T07:08:10.006Z,997.86
2022-12-23T07:09:09.963Z,997.88
2022-12-23T07:10:09.979Z,997.87
2022-12-23T07:11:09.935Z,997.89
2022-12-23T07:12:09.943Z,997.91
2022-12-23T07:13:09.914Z,997.93
2022-12-23T07:14:09.918Z,997.91
2022-12-23T07:15:09.916Z,997.93
2022-12-23T07:16:09.910Z,997.94
2022-12-23T07:17:09.945Z,997.95
2022-12-23T07:18:09.877Z,997.97
2022-12-23T07:19:09.866Z,997.99
2022-12-23T07:20:09.862Z,998.01
2022-12-23T07:21:19.730Z,998.05
2022-12-23T07:22:10.883Z,998.04
2022-12-23T07:23:09.830Z,998.08
2022-12-23T07:24:09.813Z,998.09
2022-12-23T07:25:09.829Z,998.09
2022-12-23T07:26:09.805Z,998.08
2022-12-23T07:27:09.829Z,998.10
2022-12-23T07:28:09.759Z,998.08
2022-12-23T07:29:09.744Z,998.09
2022-12-23T07:30:09.742Z,998.14
2022-12-23T07:31:09.839Z,998.15
2022-12-23T07:32:09.829Z,998.15
2022-12-23T07:33:09.747Z,998.14
2022-12-23T07:34:09.758Z,998.15
2022-12-23T07:35:09.693Z,998.17
2022-12-23T07:36:09.694Z,998.19
2022-12-23T07:37:09.640Z,998.20
2022-12-23T07:38:09.642Z,998.20
2022-12-23T07:39:09.667Z,998.22
2022-12-23T07:40:09.673Z,998.18
2022-12-23T07:41:09.619Z,998.17
2022-12-23T07:42:42.666Z,998.19
2022-12-23T07:43:10.595Z,998.20
2022-12-23T07:44:09.602Z,998.17
2022-12-23T07:45:09.550Z,998.21
2022-12-23T07:46:09.657Z,998.19
2022-12-23T07:47:09.560Z,998.21
2022-12-23T07:48:09.576Z,998.18
2022-12-23T07:49:09.539Z,998.18
2022-12-23T07:50:09.517Z,998.18
2022-12-23T07:51:09.527Z,998.18
2022-12-23T07:52:09.502Z,998.19
2022-12-23T07:53:09.500Z,998.15
2022-12-23T07:54:09.490Z,998.15
2022-12-23T07:55:09.469Z,998.16
2022-12-23T07:56:09.445Z,998.13
2022-12-23T07:57:09.444Z,998.11
2022-12-23T07:58:09.437Z,998.11
2022-12-23T07:59:09.415Z,998.13
2022-12-23T08:00:09.444Z,998.13
2022-12-23T08:01:09.460Z,998.14
2022-12-23T08:02:09.485Z,998.16
2022-12-23T08:03:09.463Z,998.17
2022-12-23T08:04:09.352Z,998.17
2022-12-23T08:05:09.531Z,998.21
2022-12-23T08:06:09.344Z,998.21
2022-12-23T08:07:09.330Z,998.20
2022-12-23T08:08:09.329Z,998.22
2022-12-23T08:09:09.297Z,998.26
2022-12-23T08:10:09.315Z,998.28
2022-12-23T08:11:09.282Z,998.29
2022-12-23T08:12:09.295Z,998.29
2022-12-23T08:13:09.279Z,998.32
2022-12-23T08:14:09.314Z,998.33
2022-12-23T08:15:09.478Z,998.37
2022-12-23T08:16:09.406Z,998.39
2022-12-23T08:17:10.022Z,998.39
2022-12-23T08:18:09.224Z,998.36
2022-12-23T08:19:09.222Z,998.33
2022-12-23T08:20:09.201Z,998.35
2022-12-23T08:21:09.200Z,998.37
2022-12-23T08:22:09.167Z,998.40
2022-12-23T08:23:09.289Z,998.41
2022-12-23T08:24:09.159Z,998.42
2022-12-23T08:25:09.115Z,998.41
2022-12-23T08:26:09.157Z,998.45
2022-12-23T08:27:09.124Z,998.46
2022-12-23T08:28:09.101Z,998.44
2022-12-23T08:29:09.083Z,998.43
2022-12-23T08:30:09.071Z,998.43
2022-12-23T08:31:09.175Z,998.46
2022-12-23T08:32:09.067Z,998.46
2022-12-23T08:33:09.028Z,998.46
2022-12-23T08:34:09.029Z,998.46
2022-12-23T08:35:09.009Z,998.47
2022-12-23T08:36:09.009Z,998.46
2022-12-23T08:37:08.990Z,998.52
2022-12-23T08:38:08.995Z,998.54
2022-12-23T08:39:08.954Z,998.57
2022-12-23T08:40:08.973Z,998.57
2022-12-23T08:41:08.960Z,998.60
2022-12-23T08:42:08.995Z,998.60
2022-12-23T08:43:08.928Z,998.60
2022-12-23T08:44:08.912Z,998.58
2022-12-23T08:45:08.913Z,998.59
2022-12-23T08:46:08.966Z,998.58
2022-12-23T08:47:08.871Z,998.62
2022-12-23T08:48:08.873Z,998.67
2022-12-23T08:49:08.858Z,998.65
2022-12-23T08:50:08.838Z,998.67
2022-12-23T08:51:08.843Z,998.66
2022-12-23T08:52:08.830Z,998.64
2022-12-23T08:53:08.814Z,998.63
2022-12-23T08:54:08.812Z,998.64
2022-12-23T08:55:08.793Z,998.59
2022-12-23T08:56:08.775Z,998.58
2022-12-23T08:57:08.768Z,998.56
2022-12-23T08:58:08.762Z,998.61
2022-12-23T08:59:13.285Z,998.60
2022-12-23T09:00:09.737Z,998.64
2022-12-23T09:01:08.735Z,998.63
2022-12-23T09:02:08.911Z,998.67
2022-12-23T09:03:08.839Z,998.67
2022-12-23T09:04:08.703Z,998.70
2022-12-23T09:05:08.683Z,998.70
2022-12-23T09:06:08.654Z,998.71
2022-12-23T09:07:08.679Z,998.66
2022-12-23T09:08:08.649Z,998.70
2022-12-23T09:09:08.655Z,998.71
2022-12-23T09:10:08.674Z,998.73
2022-12-23T09:11:08.638Z,998.76
2022-12-23T09:12:08.748Z,998.79
2022-12-23T09:13:08.586Z,998.84
2022-12-23T09:14:08.766Z,998.82
2022-12-23T09:15:08.587Z,998.88
2022-12-23T09:16:08.620Z,998.88
2022-12-23T09:17:08.545Z,998.89
2022-12-23T09:18:08.578Z,998.91
2022-12-23T09:19:08.523Z,998.89
2022-12-23T09:20:08.524Z,998.84
2022-12-23T09:21:08.501Z,998.87
2022-12-23T09:22:08.647Z,998.82
2022-12-23T09:23:08.477Z,998.83
2022-12-23T09:24:09.285Z,998.93
2022-12-23T09:25:08.587Z,998.95
2022-12-23T09:26:08.447Z,998.98
2022-12-23T09:27:08.433Z,998.93
2022-12-23T09:28:08.432Z,999.00
2022-12-23T09:29:08.417Z,999.01
2022-12-23T09:30:08.397Z,999.06
2022-12-23T09:31:08.414Z,999.12
2022-12-23T09:32:08.441Z,999.15
2022-12-23T09:33:08.372Z,999.21
2022-12-23T09:34:08.351Z,999.24
2022-12-23T09:35:08.330Z,999.26
2022-12-23T09:36:08.331Z,999.28
2022-12-23T09:37:08.321Z,999.33
2022-12-23T09:38:08.313Z,999.33
2022-12-23T09:39:08.291Z,999.35
2022-12-23T09:40:08.277Z,999.43
2022-12-23T09:41:08.283Z,999.40
2022-12-23T09:42:08.280Z,999.38
2022-12-23T09:43:08.260Z,999.38
2022-12-23T09:44:08.331Z,999.37
2022-12-23T09:45:08.244Z,999.39
2022-12-23T09:46:08.276Z,999.42
2022-12-23T09:47:08.210Z,999.41
2022-12-23T09:48:10.870Z,999.45
2022-12-23T09:49:08.215Z,999.46
2022-12-23T09:50:08.185Z,999.48
2022-12-23T09:51:08.164Z,999.50
2022-12-23T09:52:08.160Z,999.51
2022-12-23T09:53:08.151Z,999.53
2022-12-23T09:54:12.064Z,999.49
2022-12-23T09:55:09.130Z,999.47
2022-12-23T09:56:08.105Z,999.54
2022-12-23T09:57:08.104Z,999.57
2022-12-23T09:58:08.099Z,999.60
2022-12-23T09:59:08.067Z,999.65
2022-12-23T10:00:08.073Z,999.64
2022-12-23T10:01:08.040Z,999.66
2022-12-23T10:02:08.136Z,999.66
2022-12-23T10:03:08.210Z,999.63
2022-12-23T10:04:08.118Z,999.63
2022-12-23T10:05:08.003Z,999.67
2022-12-23T10:06:08.003Z,999.69
2022-12-23T10:07:07.981Z,999.69
2022-12-23T10:08:07.968Z,999.71
2022-12-23T10:09:07.964Z,999.70
2022-12-23T10:10:07.972Z,999.68
2022-12-23T10:11:07.955Z,999.68
2022-12-23T10:12:07.948Z,999.69
2022-12-23T10:13:07.956Z,999.71
2022-12-23T10:14:07.897Z,999.76
2022-12-23T10:15:07.922Z,999.76
2022-12-23T10:16:07.961Z,999.80
2022-12-23T10:17:07.914Z,999.74
2022-12-23T10:18:07.879Z,999.69
2022-12-23T10:19:08.027Z,999.64
2022-12-23T10:20:07.863Z,999.69
2022-12-23T10:21:07.847Z,999.69
2022-12-23T10:22:07.837Z,999.70
2022-12-23T10:23:07.813Z,999.68
2022-12-23T10:24:07.803Z,999.69
2022-12-23T10:25:07.793Z,999.70
2022-12-23T10:26:07.786Z,999.72
2022-12-23T10:27:07.761Z,999.72
2022-12-23T10:28:07.759Z,999.75
2022-12-23T10:29:07.752Z,999.76
2022-12-23T10:30:33.775Z,999.75
2022-12-23T10:31:38.764Z,999.76
2022-12-23T10:32:08.711Z,999.77
2022-12-23T10:33:07.720Z,999.73
2022-12-23T10:34:07.700Z,999.73
2022-12-23T10:35:07.691Z,999.68
2022-12-23T10:36:07.702Z,999.75
2022-12-23T10:37:07.757Z,999.79
2022-12-23T10:38:07.640Z,999.76
2022-12-23T10:39:07.649Z,999.77
2022-12-23T10:40:07.621Z,999.72
2022-12-23T10:41:09.608Z,999.70
2022-12-23T10:42:07.583Z,999.70
2022-12-23T10:43:07.588Z,999.73
2022-12-23T10:44:07.571Z,999.74
2022-12-23T10:45:07.585Z,999.72
2022-12-23T10:46:07.621Z,999.73
2022-12-23T10:47:07.663Z,999.76
2022-12-23T10:48:13.703Z,999.76
2022-12-23T10:49:08.530Z,999.71
2022-12-23T10:50:07.558Z,999.75
2022-12-23T10:51:07.543Z,999.74
2022-12-23T10:52:07.488Z,999.68
2022-12-23T10:53:07.483Z,999.74
2022-12-23T10:54:07.468Z,999.74
2022-12-23T10:55:07.460Z,999.74
2022-12-23T10:56:07.463Z,999.75
2022-12-23T10:57:07.451Z,999.69
2022-12-23T10:58:07.454Z,999.70
2022-12-23T10:59:07.396Z,999.63
2022-12-23T11:00:07.420Z,999.63
2022-12-23T11:01:15.006Z,999.58
2022-12-23T11:02:08.531Z,999.60
2022-12-23T11:03:07.496Z,999.57
2022-12-23T11:04:07.359Z,999.61
2022-12-23T11:05:07.359Z,999.58
2022-12-23T11:06:07.356Z,999.61
2022-12-23T11:07:42.223Z,999.58
2022-12-23T11:08:08.320Z,999.57
2022-12-23T11:09:07.308Z,999.60
2022-12-23T11:10:07.297Z,999.63
2022-12-23T11:11:07.280Z,999.59
2022-12-23T11:12:07.278Z,999.60
2022-12-23T11:13:07.267Z,999.58
2022-12-23T11:14:07.232Z,999.62
2022-12-23T11:15:07.213Z,999.64
2022-12-23T11:16:07.277Z,999.65
2022-12-23T11:17:07.205Z,999.67
2022-12-23T11:18:07.194Z,999.68
2022-12-23T11:19:07.187Z,999.68
2022-12-23T11:20:07.175Z,999.67
2022-12-23T11:21:07.165Z,999.68
2022-12-23T11:22:07.151Z,999.67
2022-12-23T11:23:07.162Z,999.67
2022-12-23T11:24:07.116Z,999.64
2022-12-23T11:25:07.132Z,999.64
2022-12-23T11:26:07.147Z,999.63
2022-12-23T11:27:07.100Z,999.62
2022-12-23T11:28:07.123Z,999.62
2022-12-23T11:29:07.068Z,999.61
2022-12-23T11:30:07.083Z,999.61
2022-12-23T11:31:07.171Z,999.59
2022-12-23T11:32:07.147Z,999.59
2022-12-23T11:33:07.030Z,999.59
2022-12-23T11:34:07.017Z,999.61
2022-12-23T11:35:07.091Z,999.65
2022-12-23T11:36:07.033Z,999.71
2022-12-23T11:37:07.666Z,999.70
2022-12-23T11:38:06.960Z,999.76
2022-12-23T11:39:06.979Z,999.75
2022-12-23T11:40:06.958Z,999.80
2022-12-23T11:41:06.971Z,999.84
2022-12-23T11:42:06.943Z,999.85
2022-12-23T11:43:07.004Z,999.85
2022-12-23T11:44:06.996Z,999.86
2022-12-23T11:45:06.937Z,999.90
2022-12-23T11:46:06.970Z,999.91
2022-12-23T11:47:06.924Z,999.93
2022-12-23T11:48:06.855Z,999.89
2022-12-23T11:49:06.871Z,999.93
2022-12-23T11:50:06.830Z,999.92
2022-12-23T11:51:06.856Z,999.89
2022-12-23T11:52:06.816Z,999.91
2022-12-23T11:53:06.876Z,999.90
2022-12-23T11:54:06.813Z,999.93
2022-12-23T11:55:06.788Z,999.91
2022-12-23T11:56:06.782Z,999.96
2022-12-23T11:57:06.914Z,999.96
2022-12-23T11:58:06.745Z,999.99
2022-12-23T11:59:06.728Z,1000.00
2022-12-23T12:00:06.733Z,1000.02
2022-12-23T12:01:06.740Z,1000.02
2022-12-23T12:02:06.797Z,1000.01
2022-12-23T12:03:08.996Z,1000.01
2022-12-23T12:04:06.696Z,1000.03
2022-12-23T12:05:06.697Z,1000.01
2022-12-23T12:06:06.657Z,1000.01
2022-12-23T12:07:06.680Z,1000.01
2022-12-23T12:08:06.640Z,1000.01
2022-12-23T12:09:06.650Z,1000.04
2022-12-23T12:10:06.608Z,1000.09
2022-12-23T12:11:06.623Z,1000.13
2022-12-23T12:12:06.621Z,1000.16
2022-12-23T12:13:06.613Z,1000.20
2022-12-23T12:14:06.577Z,1000.26
2022-12-23T12:15:06.644Z,1000.31
2022-12-23T12:16:06.570Z,1000.35
2022-12-23T12:17:06.727Z,1000.36
2022-12-23T12:18:06.529Z,1000.35
2022-12-23T12:19:06.559Z,1000.37
2022-12-23T12:20:06.532Z,1000.38
2022-12-23T12:21:06.493Z,1000.37
2022-12-23T12:22:06.509Z,1000.41
2022-12-23T12:23:06.478Z,1000.36
2022-12-23T12:24:18.439Z,1000.34
2022-12-23T12:25:07.460Z,1000.28
2022-12-23T12:26:06.443Z,1000.27
2022-12-23T12:27:06.621Z,1000.26